Arthur Brusco — WDC3449 — position and weather

sailwx.info

Track history (hours):
 
Tides and Currents Weather Stations Pressure Air Temp Water Temp Dewpoint Dewpoint Depression Visibility Wind Speed Wind Dir Waves Ship Positions

Arthur Brusco

More information available from US FCC via Universal Licensing System and Coast Guard Vessel Documentation Center.

Last reported at 2014-Aug-01 01:27 UTC. Time now 2014-Aug-01 01:54 UTC.
Position N 37°57' W 121°20'.

Length 35 m; draft 4.2 m.

Type: Towing. MMSI: 367008020.

Date/timePositionNaut miles runAvg speedWind from/ knotsBaromVisibWave heightAir tempDewpointWater temp
2014-Aug-01 01:27N 37°57' W 121°20'0 0.0
2014-Jul-31 17:27N 37°57' W 121°20'0 0.0
2014-Jul-31 16:27N 37°57' W 121°20'0 0.0
2014-Jul-31 15:21N 37°57' W 121°20'0 0.0
2014-Jul-31 14:33N 37°57' W 121°20'0 0.0
2014-Jul-31 11:09N 37°57' W 121°20'0 0.0
2014-Jul-31 07:15N 37°57' W 121°20'0 0.0
2014-Jul-31 06:33N 37°57' W 121°20'0 0.0
2014-Jul-31 05:33N 37°57' W 121°20'0 0.0
2014-Jul-31 04:15N 37°57' W 121°20'0 0.0
2014-Jul-31 03:33N 37°57' W 121°20'0 0.0
2014-Jul-30 14:32N 37°57' W 121°20'0 0.0
2014-Jul-29 16:06N 37°57' W 121°20'0 0.0
2014-Jul-29 15:30N 37°57' W 121°20'0 0.0
2014-Jul-29 14:18N 37°57' W 121°20'  
2014-Jul-26 02:29N 38°03' W 122°04'7 7.0
2014-Jul-26 01:31N 38°04' W 122°13'8 8.0
2014-Jul-26 00:33N 38°02' W 122°22'8 7.6
2014-Jul-25 23:33N 37°55' W 122°26'8 7.8
2014-Jul-25 22:33N 37°49' W 122°20'1 0.8
2014-Jul-25 21:33N 37°49' W 122°19'0 0.0
2014-Jul-25 20:33N 37°49' W 122°19'0 0.0
2014-Jul-25 19:33N 37°49' W 122°19'0 0.0
2014-Jul-25 18:33N 37°49' W 122°19'2 1.6
2014-Jul-25 17:34N 37°48' W 122°21'2 1.8
2014-Jul-25 16:33N 37°49' W 122°19'0 0.0
2014-Jul-25 15:33N 37°49' W 122°19'1 0.5
2014-Jul-25 14:33N 37°49' W 122°19'6 6.2
2014-Jul-25 13:33N 37°53' W 122°25'10 9.5
2014-Jul-25 12:33N 38°02' W 122°22'1110.9
2014-Jul-25 11:32N 38°02' W 122°08'1110.1
2014-Jul-25 10:28N 38°03' W 121°54'  
2014-Jul-22 23:24N 38°04' W 122°13'7 8.4
2014-Jul-22 22:33N 38°02' W 122°22'8 7.6
2014-Jul-22 21:33N 37°54' W 122°25'8 8.2
2014-Jul-22 20:34N 37°48' W 122°19'1 1.4
2014-Jul-22 19:33N 37°49' W 122°19'0 0.3
2014-Jul-22 18:33N 37°49' W 122°19'0 0.0
2014-Jul-22 17:33N 37°49' W 122°19'0 0.0
2014-Jul-22 16:33N 37°49' W 122°19'0 0.0
2014-Jul-22 15:33N 37°49' W 122°19'2 1.6
2014-Jul-22 14:34N 37°48' W 122°19'6 6.2
2014-Jul-22 13:33N 37°53' W 122°24'9 8.6
2014-Jul-22 12:30N 38°02' W 122°22'  
Track history (hours):
 
Tides and Currents Weather Stations Pressure Air Temp Water Temp Dewpoint Dewpoint Depression Visibility Wind Speed Wind Dir Waves Ship Positions

Arthur Brusco

More information available from US FCC via Universal Licensing System and Coast Guard Vessel Documentation Center.

Last reported at 2014-Aug-01 01:27 UTC. Time now 2014-Aug-01 01:54 UTC.
Position N 37°57' W 121°20'.

Length 35 m; draft 4.2 m.

Type: Towing. MMSI: 367008020.

Date/timePositionNaut miles runAvg speedWind from/ knotsBaromVisibWave heightAir tempDewpointWater temp
2014-Aug-01 01:27N 37°57' W 121°20'0 0.0
2014-Jul-31 17:27N 37°57' W 121°20'0 0.0
2014-Jul-31 16:27N 37°57' W 121°20'0 0.0
2014-Jul-31 15:21N 37°57' W 121°20'0 0.0
2014-Jul-31 14:33N 37°57' W 121°20'0 0.0
2014-Jul-31 11:09N 37°57' W 121°20'0 0.0
2014-Jul-31 07:15N 37°57' W 121°20'0 0.0
2014-Jul-31 06:33N 37°57' W 121°20'0 0.0
2014-Jul-31 05:33N 37°57' W 121°20'0 0.0
2014-Jul-31 04:15N 37°57' W 121°20'0 0.0
2014-Jul-31 03:33N 37°57' W 121°20'0 0.0
2014-Jul-30 14:32N 37°57' W 121°20'0 0.0
2014-Jul-29 16:06N 37°57' W 121°20'0 0.0
2014-Jul-29 15:30N 37°57' W 121°20'0 0.0
2014-Jul-29 14:18N 37°57' W 121°20'  
2014-Jul-26 02:29N 38°03' W 122°04'7 7.0
2014-Jul-26 01:31N 38°04' W 122°13'8 8.0
2014-Jul-26 00:33N 38°02' W 122°22'8 7.6
2014-Jul-25 23:33N 37°55' W 122°26'8 7.8
2014-Jul-25 22:33N 37°49' W 122°20'1 0.8
2014-Jul-25 21:33N 37°49' W 122°19'0 0.0
2014-Jul-25 20:33N 37°49' W 122°19'0 0.0
2014-Jul-25 19:33N 37°49' W 122°19'0 0.0
2014-Jul-25 18:33N 37°49' W 122°19'2 1.6
2014-Jul-25 17:34N 37°48' W 122°21'2 1.8
2014-Jul-25 16:33N 37°49' W 122°19'0 0.0
2014-Jul-25 15:33N 37°49' W 122°19'1 0.5
2014-Jul-25 14:33N 37°49' W 122°19'6 6.2
2014-Jul-25 13:33N 37°53' W 122°25'10 9.5
2014-Jul-25 12:33N 38°02' W 122°22'1110.9
2014-Jul-25 11:32N 38°02' W 122°08'1110.1
2014-Jul-25 10:28N 38°03' W 121°54'  
2014-Jul-22 23:24N 38°04' W 122°13'7 8.4
2014-Jul-22 22:33N 38°02' W 122°22'8 7.6
2014-Jul-22 21:33N 37°54' W 122°25'8 8.2
2014-Jul-22 20:34N 37°48' W 122°19'1 1.4
2014-Jul-22 19:33N 37°49' W 122°19'0 0.3
2014-Jul-22 18:33N 37°49' W 122°19'0 0.0
2014-Jul-22 17:33N 37°49' W 122°19'0 0.0
2014-Jul-22 16:33N 37°49' W 122°19'0 0.0
2014-Jul-22 15:33N 37°49' W 122°19'2 1.6
2014-Jul-22 14:34N 37°48' W 122°19'6 6.2
2014-Jul-22 13:33N 37°53' W 122°24'9 8.6
2014-Jul-22 12:30N 38°02' W 122°22'  

Dump ship's entire track history